sensor_id;sensor_type;location;lat;lon;timestamp;P1;P4;P2;P0;N10;N4;N25;N1;N05;TS
65988;SPS30;53592;51.402;6.054;2023-05-29T00:01:38;5.65;5.63;5.55;5.14;41.10;41.08;41.04;40.82;35.73;0.58
65988;SPS30;53592;51.402;6.054;2023-05-29T00:04:04;5.55;5.54;5.46;5.08;40.59;40.58;40.54;40.34;35.32;0.55
65988;SPS30;53592;51.402;6.054;2023-05-29T00:06:30;5.71;5.70;5.65;5.29;42.23;42.22;42.19;42.01;36.82;0.54
65988;SPS30;53592;51.402;6.054;2023-05-29T00:08:55;5.49;5.48;5.44;5.09;40.64;40.63;40.60;40.43;35.44;0.55
65988;SPS30;53592;51.402;6.054;2023-05-29T00:11:21;5.48;5.47;5.40;5.04;40.24;40.23;40.20;40.01;35.05;0.55
65988;SPS30;53592;51.402;6.054;2023-05-29T00:13:48;5.31;5.30;5.26;4.93;39.36;39.35;39.33;39.17;34.35;0.55
65988;SPS30;53592;51.402;6.054;2023-05-29T00:16:13;5.63;5.63;5.60;5.27;42.07;42.06;42.04;41.89;36.76;0.54
65988;SPS30;53592;51.402;6.054;2023-05-29T00:18:38;5.45;5.45;5.43;5.12;40.88;40.86;40.84;40.71;35.74;0.52
65988;SPS30;53592;51.402;6.054;2023-05-29T00:21:10;5.00;4.99;4.98;4.70;37.52;37.51;37.49;37.38;32.81;0.53
65988;SPS30;53592;51.402;6.054;2023-05-29T00:23:39;5.21;5.20;5.17;4.86;38.79;38.78;38.76;38.62;33.88;0.54
65988;SPS30;53592;51.402;6.054;2023-05-29T00:26:05;5.34;5.34;5.32;5.01;40.01;40.00;39.97;39.84;34.97;0.53
65988;SPS30;53592;51.402;6.054;2023-05-29T00:28:31;5.63;5.63;5.62;5.30;42.36;42.35;42.33;42.20;37.06;0.53
65988;SPS30;53592;51.402;6.054;2023-05-29T00:30:56;5.53;5.53;5.50;5.17;41.31;41.30;41.27;41.13;36.09;0.55
65988;SPS30;53592;51.402;6.054;2023-05-29T00:33:21;5.55;5.55;5.53;5.20;41.51;41.50;41.48;41.34;36.27;0.54
65988;SPS30;53592;51.402;6.054;2023-05-29T00:35:47;5.67;5.66;5.62;5.27;42.07;42.06;42.03;41.86;36.71;0.54
65988;SPS30;53592;51.402;6.054;2023-05-29T00:38:12;5.59;5.58;5.54;5.20;41.52;41.51;41.48;41.32;36.24;0.56
65988;SPS30;53592;51.402;6.054;2023-05-29T00:40:39;5.31;5.30;5.24;4.88;39.02;39.01;38.98;38.80;33.98;0.57
65988;SPS30;53592;51.402;6.054;2023-05-29T00:43:05;5.82;5.81;5.78;5.42;43.29;43.27;43.25;43.08;37.79;0.53
65988;SPS30;53592;51.402;6.054;2023-05-29T00:45:30;5.72;5.71;5.67;5.31;42.45;42.44;42.41;42.25;37.05;0.54
65988;SPS30;53592;51.402;6.054;2023-05-29T00:47:57;5.79;5.78;5.76;5.42;43.30;43.29;43.27;43.12;37.85;0.54
65988;SPS30;53592;51.402;6.054;2023-05-29T00:50:23;6.12;6.11;6.09;5.72;45.73;45.71;45.69;45.53;39.96;0.55
65988;SPS30;53592;51.402;6.054;2023-05-29T00:52:48;5.76;5.75;5.69;5.31;42.43;42.41;42.38;42.19;36.97;0.57
65988;SPS30;53592;51.402;6.054;2023-05-29T00:55:15;5.89;5.88;5.81;5.41;43.24;43.22;43.19;42.98;37.65;0.56
65988;SPS30;53592;51.402;6.054;2023-05-29T00:57:41;5.58;5.57;5.51;5.15;41.15;41.14;41.11;40.93;35.87;0.56
65988;SPS30;53592;51.402;6.054;2023-05-29T01:00:07;5.66;5.66;5.62;5.28;42.19;42.18;42.15;42.00;36.84;0.55
65988;SPS30;53592;51.402;6.054;2023-05-29T01:02:35;5.47;5.47;5.42;5.08;40.57;40.56;40.53;40.37;35.40;0.54
65988;SPS30;53592;51.402;6.054;2023-05-29T01:05:01;5.45;5.43;5.33;4.93;39.40;39.39;39.34;39.12;34.21;0.58
65988;SPS30;53592;51.402;6.054;2023-05-29T01:07:27;5.28;5.26;5.14;4.73;37.79;37.77;37.73;37.48;32.74;0.58
65988;SPS30;53592;51.402;6.054;2023-05-29T01:09:52;5.50;5.48;5.36;4.93;39.43;39.41;39.37;39.11;34.18;0.59
65988;SPS30;53592;51.402;6.054;2023-05-29T01:15:37;4.86;4.84;4.73;4.35;34.73;34.71;34.67;34.44;30.08;0.58
65988;SPS30;53592;51.402;6.054;2023-05-29T01:29:29;4.69;4.66;4.51;4.09;32.69;32.68;32.63;32.35;28.18;0.57
65988;SPS30;53592;51.402;6.054;2023-05-29T01:31:57;4.65;4.62;4.43;3.97;31.73;31.72;31.66;31.34;27.23;0.60
65988;SPS30;53592;51.402;6.054;2023-05-29T01:34:23;4.44;4.41;4.25;3.84;30.69;30.68;30.62;30.35;26.41;0.60
65988;SPS30;53592;51.402;6.054;2023-05-29T01:36:49;4.89;4.84;4.62;4.10;32.80;32.78;32.71;32.34;28.05;0.63
65988;SPS30;53592;51.402;6.054;2023-05-29T01:39:15;4.58;4.53;4.25;3.69;29.53;29.51;29.43;29.00;25.03;0.64
65988;SPS30;53592;51.402;6.054;2023-05-29T01:41:45;5.04;4.97;4.60;3.92;31.40;31.37;31.27;30.73;26.41;0.64
65988;SPS30;53592;51.402;6.054;2023-05-29T01:44:11;4.73;4.67;4.34;3.71;29.73;29.71;29.61;29.12;25.06;0.63
65988;SPS30;53592;51.402;6.054;2023-05-29T01:46:39;4.54;4.49;4.20;3.63;29.04;29.02;28.94;28.50;24.57;0.62
65988;SPS30;53592;51.402;6.054;2023-05-29T01:49:06;4.59;4.53;4.19;3.56;28.51;28.49;28.39;27.89;23.96;0.63
65988;SPS30;53592;51.402;6.054;2023-05-29T01:51:34;4.64;4.57;4.24;3.62;28.94;28.92;28.83;28.33;24.36;0.62
65988;SPS30;53592;51.402;6.054;2023-05-29T01:54:00;4.60;4.54;4.23;3.65;29.20;29.18;29.09;28.63;24.67;0.62
65988;SPS30;53592;51.402;6.054;2023-05-29T01:56:27;4.67;4.60;4.26;3.63;29.08;29.06;28.96;28.46;24.46;0.65
65988;SPS30;53592;51.402;6.054;2023-05-29T01:58:56;4.56;4.49;4.14;3.50;28.01;27.99;27.89;27.37;23.48;0.66
65988;SPS30;53592;51.402;6.054;2023-05-29T02:01:23;4.61;4.53;4.12;3.41;27.34;27.31;27.20;26.62;22.73;0.65
65988;SPS30;53592;51.402;6.054;2023-05-29T02:03:50;4.64;4.55;4.10;3.35;26.82;26.79;26.67;26.04;22.15;0.65
65988;SPS30;53592;51.402;6.054;2023-05-29T02:06:19;4.59;4.50;4.04;3.28;26.30;26.27;26.14;25.50;21.67;0.64
65988;SPS30;53592;51.402;6.054;2023-05-29T02:08:45;4.55;4.45;3.99;3.22;25.83;25.81;25.68;25.03;21.25;0.66
65988;SPS30;53592;51.402;6.054;2023-05-29T02:11:11;4.87;4.76;4.21;3.33;26.70;26.67;26.52;25.76;21.75;0.68
65988;SPS30;53592;51.402;6.054;2023-05-29T02:13:37;4.71;4.59;4.01;3.12;25.05;25.02;24.87;24.08;20.24;0.69
65988;SPS30;53592;51.402;6.054;2023-05-29T02:16:03;5.36;5.21;4.44;3.30;26.55;26.51;26.31;25.29;20.99;0.70
65988;SPS30;53592;51.402;6.054;2023-05-29T02:18:28;5.32;5.17;4.44;3.34;26.80;26.76;26.57;25.58;21.31;0.70
65988;SPS30;53592;51.402;6.054;2023-05-29T02:20:54;4.99;4.86;4.20;3.20;25.70;25.67;25.49;24.61;20.57;0.71
65988;SPS30;53592;51.402;6.054;2023-05-29T02:23:19;5.28;5.13;4.41;3.32;26.70;26.67;26.47;25.51;21.26;0.73
65988;SPS30;53592;51.402;6.054;2023-05-29T02:25:46;5.03;4.90;4.23;3.22;25.87;25.84;25.66;24.77;20.70;0.70
65988;SPS30;53592;51.402;6.054;2023-05-29T02:28:11;4.83;4.71;4.13;3.22;25.84;25.81;25.66;24.86;20.92;0.67
65988;SPS30;53592;51.402;6.054;2023-05-29T02:30:37;4.93;4.81;4.24;3.35;26.86;26.83;26.68;25.90;21.85;0.68
65988;SPS30;53592;51.402;6.054;2023-05-29T02:33:03;4.99;4.87;4.25;3.30;26.49;26.46;26.30;25.46;21.39;0.70
65988;SPS30;53592;51.402;6.054;2023-05-29T02:35:28;4.72;4.61;4.07;3.21;25.74;25.71;25.57;24.82;20.94;0.68
65988;SPS30;53592;51.402;6.054;2023-05-29T02:37:54;4.38;4.29;3.80;3.03;24.33;24.31;24.18;23.52;19.89;0.66
65988;SPS30;53592;51.402;6.054;2023-05-29T02:40:19;4.90;4.79;4.21;3.30;26.47;26.44;26.29;25.50;21.48;0.68
65988;SPS30;53592;51.402;6.054;2023-05-29T02:42:45;4.92;4.80;4.16;3.19;25.63;25.59;25.43;24.57;20.57;0.70
65988;SPS30;53592;51.402;6.054;2023-05-29T02:45:11;4.94;4.80;4.15;3.15;25.31;25.27;25.10;24.22;20.23;0.69
65988;SPS30;53592;51.402;6.054;2023-05-29T02:47:37;4.52;4.40;3.80;2.90;23.26;23.23;23.07;22.27;18.61;0.69
65988;SPS30;53592;51.402;6.054;2023-05-29T02:50:03;4.73;4.61;3.99;3.06;24.59;24.55;24.39;23.57;19.73;0.70
65988;SPS30;53592;51.402;6.054;2023-05-29T02:52:29;4.88;4.76;4.12;3.16;25.37;25.34;25.17;24.32;20.36;0.70
65988;SPS30;53592;51.402;6.054;2023-05-29T02:54:56;4.96;4.83;4.17;3.18;25.54;25.51;25.33;24.45;20.44;0.70
65988;SPS30;53592;51.402;6.054;2023-05-29T02:57:23;4.98;4.85;4.17;3.16;25.36;25.33;25.15;24.24;20.23;0.70
65988;SPS30;53592;51.402;6.054;2023-05-29T02:59:50;5.01;4.87;4.18;3.15;25.31;25.27;25.09;24.17;20.14;0.71
65988;SPS30;53592;51.402;6.054;2023-05-29T03:02:16;4.87;4.74;4.08;3.09;24.80;24.77;24.59;23.71;19.79;0.71
65988;SPS30;53592;51.402;6.054;2023-05-29T03:04:42;4.99;4.84;4.11;3.03;24.33;24.30;24.10;23.13;19.15;0.73
65988;SPS30;53592;51.402;6.054;2023-05-29T03:07:09;4.56;4.42;3.73;2.72;21.88;21.85;21.67;20.75;17.14;0.73
65988;SPS30;53592;51.402;6.054;2023-05-29T03:09:34;4.83;4.69;4.01;3.00;24.06;24.03;23.85;22.94;19.07;0.71
65988;SPS30;53592;51.402;6.054;2023-05-29T03:12:00;5.15;4.99;4.20;3.04;24.46;24.43;24.22;23.17;19.09;0.73
65988;SPS30;53592;51.402;6.054;2023-05-29T03:14:26;4.90;4.75;4.03;2.96;23.79;23.75;23.56;22.59;18.70;0.71
65988;SPS30;53592;51.402;6.054;2023-05-29T03:16:52;4.72;4.59;3.94;2.96;23.78;23.74;23.57;22.70;18.91;0.70
65988;SPS30;53592;51.402;6.054;2023-05-29T03:19:18;5.18;5.03;4.31;3.24;26.01;25.98;25.79;24.82;20.66;0.68
65988;SPS30;53592;51.402;6.054;2023-05-29T03:21:44;4.43;4.32;3.77;2.93;23.49;23.46;23.32;22.58;18.96;0.65
65988;SPS30;53592;51.402;6.054;2023-05-29T03:24:10;4.83;4.71;4.11;3.17;25.47;25.44;25.27;24.45;20.52;0.68
65988;SPS30;53592;51.402;6.054;2023-05-29T03:26:36;5.05;4.92;4.24;3.22;25.86;25.83;25.65;24.74;20.67;0.70
65988;SPS30;53592;51.402;6.054;2023-05-29T03:29:02;4.99;4.85;4.15;3.11;25.01;24.97;24.79;23.86;19.86;0.72
65988;SPS30;53592;51.402;6.054;2023-05-29T03:31:27;5.33;5.15;4.28;3.04;24.44;24.40;24.17;23.03;18.85;0.75
65988;SPS30;53592;51.402;6.054;2023-05-29T03:33:53;5.67;5.48;4.51;3.13;25.21;25.17;24.92;23.65;19.24;0.75
65988;SPS30;53592;51.402;6.054;2023-05-29T03:36:18;5.01;4.84;4.00;2.79;22.48;22.44;22.22;21.11;17.20;0.74
65988;SPS30;53592;51.402;6.054;2023-05-29T03:38:44;5.48;5.31;4.42;3.14;25.24;25.20;24.96;23.79;19.49;0.73
65988;SPS30;53592;51.402;6.054;2023-05-29T03:41:10;5.48;5.30;4.38;3.06;24.66;24.62;24.38;23.17;18.89;0.74
65988;SPS30;53592;51.402;6.054;2023-05-29T03:43:35;5.74;5.53;4.51;3.07;24.73;24.68;24.42;23.08;18.65;0.77
65988;SPS30;53592;51.402;6.054;2023-05-29T03:46:01;5.65;5.43;4.35;2.85;23.02;22.97;22.69;21.29;16.99;0.80
65988;SPS30;53592;51.402;6.054;2023-05-29T03:48:27;6.51;6.26;5.00;3.26;26.27;26.21;25.89;24.26;19.31;0.79
65988;SPS30;53592;51.402;6.054;2023-05-29T03:50:52;5.37;5.18;4.23;2.89;23.32;23.27;23.03;21.79;17.64;0.77
65988;SPS30;53592;51.402;6.054;2023-05-29T03:53:18;5.14;4.96;4.04;2.75;22.19;22.14;21.91;20.72;16.75;0.77
65988;SPS30;53592;51.402;6.054;2023-05-29T03:55:43;5.76;5.57;4.59;3.20;25.76;25.71;25.46;24.18;19.69;0.75
65988;SPS30;53592;51.402;6.054;2023-05-29T03:58:09;5.67;5.48;4.54;3.20;25.71;25.67;25.42;24.19;19.76;0.75
65988;SPS30;53592;51.402;6.054;2023-05-29T04:00:37;5.11;4.96;4.16;3.01;24.22;24.19;23.98;22.93;18.89;0.72
65988;SPS30;53592;51.402;6.054;2023-05-29T04:03:04;5.43;5.25;4.35;3.07;24.69;24.65;24.41;23.24;18.99;0.74
65988;SPS30;53592;51.402;6.054;2023-05-29T04:05:29;5.68;5.50;4.63;3.35;26.94;26.90;26.67;25.52;21.03;0.73
65988;SPS30;53592;51.402;6.054;2023-05-29T04:07:56;5.39;5.23;4.42;3.24;26.02;25.98;25.76;24.69;20.41;0.71
65988;SPS30;53592;51.402;6.054;2023-05-29T04:10:21;5.15;4.98;4.13;2.90;23.37;23.33;23.11;21.99;17.96;0.74
65988;SPS30;53592;51.402;6.054;2023-05-29T04:12:47;5.43;5.24;4.33;3.02;24.32;24.27;24.03;22.83;18.60;0.74
65988;SPS30;53592;51.402;6.054;2023-05-29T04:15:12;5.91;5.71;4.70;3.28;26.38;26.33;26.07;24.76;20.16;0.74
65988;SPS30;53592;51.402;6.054;2023-05-29T04:17:38;6.63;6.38;5.15;3.43;27.64;27.58;27.26;25.66;20.59;0.76
65988;SPS30;53592;51.402;6.054;2023-05-29T04:20:03;6.82;6.55;5.19;3.32;26.83;26.77;26.42;24.67;19.51;0.80
65988;SPS30;53592;51.402;6.054;2023-05-29T04:22:34;6.60;6.34;5.02;3.21;25.89;25.83;25.49;23.78;18.80;0.78
65988;SPS30;53592;51.402;6.054;2023-05-29T04:25:03;5.48;5.30;4.40;3.11;25.05;25.01;24.78;23.60;19.30;0.71
65988;SPS30;53592;51.402;6.054;2023-05-29T04:27:32;5.79;5.62;4.72;3.43;27.55;27.50;27.27;26.09;21.51;0.71
65988;SPS30;53592;51.402;6.054;2023-05-29T04:30:05;5.65;5.46;4.53;3.20;25.76;25.72;25.48;24.26;19.84;0.73
65988;SPS30;53592;51.402;6.054;2023-05-29T04:32:31;5.68;5.49;4.58;3.26;26.21;26.17;25.93;24.72;20.26;0.72
65988;SPS30;53592;51.402;6.054;2023-05-29T04:34:58;5.42;5.25;4.40;3.17;25.49;25.45;25.23;24.11;19.83;0.71
65988;SPS30;53592;51.402;6.054;2023-05-29T04:37:31;5.26;5.09;4.27;3.07;24.67;24.63;24.41;23.32;19.17;0.72
65988;SPS30;53592;51.402;6.054;2023-05-29T04:40:05;5.37;5.21;4.40;3.21;25.80;25.76;25.55;24.47;20.21;0.71
65988;SPS30;53592;51.402;6.054;2023-05-29T04:42:37;5.36;5.19;4.34;3.10;24.94;24.90;24.68;23.56;19.34;0.72
65988;SPS30;53592;51.402;6.054;2023-05-29T04:45:05;5.10;4.94;4.13;2.96;23.83;23.79;23.58;22.52;18.50;0.72
65988;SPS30;53592;51.402;6.054;2023-05-29T04:47:31;5.48;5.32;4.47;3.25;26.09;26.05;25.83;24.72;20.38;0.71
65988;SPS30;53592;51.402;6.054;2023-05-29T04:50:01;5.36;5.19;4.34;3.12;25.07;25.03;24.81;23.69;19.47;0.71
65988;SPS30;53592;51.402;6.054;2023-05-29T04:52:27;5.75;5.56;4.61;3.25;26.14;26.10;25.85;24.60;20.11;0.74
65988;SPS30;53592;51.402;6.054;2023-05-29T04:54:56;5.93;5.73;4.70;3.25;26.15;26.10;25.84;24.50;19.89;0.75
65988;SPS30;53592;51.402;6.054;2023-05-29T04:57:22;5.26;5.08;4.22;2.97;23.92;23.88;23.65;22.52;18.40;0.72
65988;SPS30;53592;51.402;6.054;2023-05-29T04:59:48;5.60;5.42;4.52;3.23;25.99;25.95;25.72;24.54;20.13;0.72
65988;SPS30;53592;51.402;6.054;2023-05-29T05:02:13;5.39;5.22;4.36;3.12;25.07;25.03;24.80;23.67;19.43;0.71
65988;SPS30;53592;51.402;6.054;2023-05-29T05:04:39;5.59;5.40;4.49;3.17;25.54;25.50;25.26;24.06;19.68;0.72
65988;SPS30;53592;51.402;6.054;2023-05-29T05:07:05;5.87;5.66;4.61;3.13;25.23;25.18;24.91;23.54;19.01;0.75
65988;SPS30;53592;51.402;6.054;2023-05-29T05:09:30;5.60;5.40;4.44;3.08;24.79;24.74;24.49;23.24;18.89;0.74
65988;SPS30;53592;51.402;6.054;2023-05-29T05:11:56;6.35;6.13;5.01;3.43;27.61;27.55;27.26;25.80;20.89;0.76
65988;SPS30;53592;51.402;6.054;2023-05-29T05:14:22;5.92;5.71;4.68;3.22;25.90;25.85;25.58;24.24;19.65;0.75
65988;SPS30;53592;51.402;6.054;2023-05-29T05:16:47;5.48;5.30;4.37;3.06;24.61;24.57;24.33;23.12;18.84;0.74
65988;SPS30;53592;51.402;6.054;2023-05-29T05:19:13;6.06;5.85;4.81;3.34;26.88;26.84;26.57;25.21;20.50;0.74
65988;SPS30;53592;51.402;6.054;2023-05-29T05:21:38;5.53;5.32;4.28;2.83;22.82;22.77;22.51;21.16;16.94;0.77
65988;SPS30;53592;51.402;6.054;2023-05-29T05:24:04;5.68;5.47;4.43;2.97;23.94;23.89;23.62;22.26;17.90;0.75
65988;SPS30;53592;51.402;6.054;2023-05-29T05:26:30;5.71;5.50;4.44;2.96;23.87;23.82;23.55;22.18;17.80;0.75
65988;SPS30;53592;51.402;6.054;2023-05-29T05:28:55;5.87;5.65;4.58;3.09;24.88;24.83;24.55;23.17;18.66;0.75
65988;SPS30;53592;51.402;6.054;2023-05-29T05:31:21;5.84;5.62;4.54;3.02;24.33;24.28;24.00;22.59;18.11;0.75
65988;SPS30;53592;51.402;6.054;2023-05-29T05:33:47;5.36;5.15;4.13;2.71;21.83;21.78;21.51;20.19;16.11;0.78
65988;SPS30;53592;51.402;6.054;2023-05-29T05:36:12;5.07;4.88;3.95;2.64;21.31;21.26;21.02;19.81;15.92;0.76
65988;SPS30;53592;51.402;6.054;2023-05-29T05:38:38;4.84;4.67;3.81;2.60;20.92;20.88;20.65;19.53;15.79;0.74
65988;SPS30;53592;51.402;6.054;2023-05-29T05:41:03;5.68;5.47;4.46;3.04;24.47;24.43;24.17;22.85;18.47;0.75
65988;SPS30;53592;51.402;6.054;2023-05-29T05:43:28;5.18;4.99;4.07;2.77;22.33;22.28;22.04;20.84;16.84;0.75
65988;SPS30;53592;51.402;6.054;2023-05-29T05:45:54;5.52;5.32;4.29;2.87;23.10;23.05;22.79;21.46;17.22;0.77
65988;SPS30;53592;51.402;6.054;2023-05-29T05:48:20;5.87;5.63;4.48;2.89;23.29;23.24;22.94;21.45;17.01;0.79
65988;SPS30;53592;51.402;6.054;2023-05-29T05:50:45;5.75;5.51;4.33;2.71;21.90;21.84;21.54;20.02;15.71;0.81
65988;SPS30;53592;51.402;6.054;2023-05-29T05:53:11;5.81;5.58;4.43;2.85;23.01;22.96;22.66;21.18;16.79;0.81
65988;SPS30;53592;51.402;6.054;2023-05-29T05:55:36;5.27;5.07;4.05;2.64;21.27;21.23;20.96;19.64;15.64;0.79
65988;SPS30;53592;51.402;6.054;2023-05-29T05:58:02;5.52;5.30;4.20;2.69;21.75;21.70;21.42;20.01;15.84;0.80
65988;SPS30;53592;51.402;6.054;2023-05-29T06:00:27;6.11;5.87;4.66;3.00;24.20;24.15;23.83;22.27;17.65;0.79
65988;SPS30;53592;51.402;6.054;2023-05-29T06:02:53;5.15;4.96;4.00;2.66;21.45;21.41;21.16;19.92;15.97;0.77
65988;SPS30;53592;51.402;6.054;2023-05-29T06:05:18;5.73;5.52;4.45;2.95;23.79;23.74;23.47;22.08;17.69;0.77
65988;SPS30;53592;51.402;6.054;2023-05-29T06:07:44;5.76;5.54;4.41;2.86;23.06;23.01;22.72;21.27;16.90;0.78
65988;SPS30;53592;51.402;6.054;2023-05-29T06:10:09;5.97;5.75;4.61;3.03;24.42;24.37;24.08;22.60;18.05;0.77
65988;SPS30;53592;51.402;6.054;2023-05-29T06:12:35;5.18;5.01;4.15;2.93;23.61;23.56;23.34;22.23;18.17;0.73
65988;SPS30;53592;51.402;6.054;2023-05-29T06:15:01;5.68;5.47;4.40;2.91;23.43;23.38;23.10;21.71;17.37;0.77
65988;SPS30;53592;51.402;6.054;2023-05-29T06:17:29;6.06;5.82;4.61;2.94;23.70;23.65;23.34;21.77;17.20;0.81
65988;SPS30;53592;51.402;6.054;2023-05-29T06:19:54;5.64;5.41;4.27;2.71;21.84;21.79;21.50;20.03;15.78;0.80
65988;SPS30;53592;51.402;6.054;2023-05-29T06:22:20;5.70;5.47;4.32;2.75;22.18;22.13;21.84;20.36;16.06;0.79
65988;SPS30;53592;51.402;6.054;2023-05-29T06:24:46;5.92;5.69;4.52;2.92;23.55;23.49;23.19;21.69;17.21;0.79
65988;SPS30;53592;51.402;6.054;2023-05-29T06:27:11;5.52;5.30;4.17;2.63;21.26;21.21;20.92;19.47;15.32;0.80
65988;SPS30;53592;51.402;6.054;2023-05-29T06:29:37;5.53;5.32;4.27;2.81;22.70;22.65;22.38;21.02;16.80;0.77
65988;SPS30;53592;51.402;6.054;2023-05-29T06:32:02;4.96;4.77;3.87;2.60;20.92;20.88;20.65;19.47;15.66;0.75
65988;SPS30;53592;51.402;6.054;2023-05-29T06:34:28;5.02;4.84;3.93;2.66;21.40;21.35;21.12;19.94;16.08;0.76
65988;SPS30;53592;51.402;6.054;2023-05-29T06:36:53;5.12;4.94;4.03;2.75;22.14;22.09;21.86;20.67;16.72;0.76
65988;SPS30;53592;51.402;6.054;2023-05-29T06:39:19;5.20;5.01;4.06;2.73;21.99;21.95;21.70;20.47;16.47;0.77
65988;SPS30;53592;51.402;6.054;2023-05-29T06:41:45;4.88;4.71;3.86;2.66;21.43;21.39;21.17;20.06;16.27;0.74
65988;SPS30;53592;51.402;6.054;2023-05-29T06:44:10;4.73;4.57;3.79;2.67;21.51;21.47;21.27;20.25;16.55;0.71
65988;SPS30;53592;51.402;6.054;2023-05-29T06:46:36;5.29;5.11;4.18;2.86;23.06;23.02;22.78;21.56;17.47;0.75
65988;SPS30;53592;51.402;6.054;2023-05-29T06:49:01;5.66;5.45;4.40;2.93;23.63;23.58;23.31;21.94;17.60;0.76
65988;SPS30;53592;51.402;6.054;2023-05-29T06:51:27;5.62;5.41;4.35;2.88;23.22;23.17;22.90;21.53;17.24;0.76
65988;SPS30;53592;51.402;6.054;2023-05-29T06:53:52;5.28;5.09;4.13;2.79;22.45;22.40;22.15;20.90;16.84;0.76
65988;SPS30;53592;51.402;6.054;2023-05-29T06:56:18;5.48;5.28;4.26;2.84;22.88;22.83;22.57;21.25;17.05;0.78
65988;SPS30;53592;51.402;6.054;2023-05-29T06:58:43;5.22;5.01;4.00;2.59;20.91;20.86;20.60;19.29;15.33;0.78
65988;SPS30;53592;51.402;6.054;2023-05-29T07:01:10;5.81;5.58;4.43;2.84;22.91;22.86;22.56;21.07;16.68;0.78
65988;SPS30;53592;51.402;6.054;2023-05-29T07:03:36;5.06;4.86;3.84;2.45;19.79;19.74;19.48;18.18;14.36;0.78
65988;SPS30;53592;51.402;6.054;2023-05-29T07:06:01;5.40;5.18;4.08;2.57;20.79;20.73;20.45;19.04;14.98;0.79
65988;SPS30;53592;51.402;6.054;2023-05-29T07:08:27;6.46;6.19;4.85;3.02;24.41;24.35;24.01;22.28;17.45;0.79
65988;SPS30;53592;51.402;6.054;2023-05-29T07:10:53;4.93;4.72;3.72;2.34;18.92;18.87;18.61;17.32;13.62;0.79
65988;SPS30;53592;51.402;6.054;2023-05-29T07:13:19;4.87;4.69;3.78;2.51;20.28;20.23;20.00;18.82;15.09;0.76
65988;SPS30;53592;51.402;6.054;2023-05-29T07:15:44;4.81;4.63;3.74;2.50;20.18;20.14;19.91;18.76;15.07;0.76
65988;SPS30;53592;51.402;6.054;2023-05-29T07:18:10;4.62;4.46;3.64;2.49;20.06;20.03;19.81;18.75;15.18;0.75
65988;SPS30;53592;51.402;6.054;2023-05-29T07:20:36;4.20;4.05;3.29;2.22;17.91;17.88;17.68;16.69;13.45;0.76
65988;SPS30;53592;51.402;6.054;2023-05-29T07:23:02;4.37;4.21;3.39;2.25;18.16;18.12;17.91;16.85;13.50;0.76
65988;SPS30;53592;51.402;6.054;2023-05-29T07:25:28;4.22;4.07;3.35;2.32;18.69;18.65;18.46;17.52;14.24;0.74
65988;SPS30;53592;51.402;6.054;2023-05-29T07:27:55;4.32;4.16;3.37;2.26;18.22;18.18;17.98;16.95;13.63;0.76
65988;SPS30;53592;51.402;6.054;2023-05-29T07:30:20;4.39;4.24;3.44;2.32;18.69;18.65;18.45;17.41;14.03;0.76
65988;SPS30;53592;51.402;6.054;2023-05-29T07:32:46;3.86;3.73;3.05;2.09;16.80;16.76;16.59;15.70;12.71;0.75
65988;SPS30;53592;51.402;6.054;2023-05-29T07:35:11;4.05;3.92;3.25;2.29;18.40;18.37;18.19;17.31;14.15;0.74
65988;SPS30;53592;51.402;6.054;2023-05-29T07:37:37;4.09;3.96;3.33;2.41;19.37;19.34;19.17;18.33;15.10;0.72
65988;SPS30;53592;51.402;6.054;2023-05-29T07:40:02;3.70;3.59;3.04;2.23;17.89;17.86;17.72;16.98;14.04;0.72
65988;SPS30;53592;51.402;6.054;2023-05-29T07:42:31;3.97;3.85;3.21;2.30;18.47;18.44;18.28;17.44;14.32;0.74
65988;SPS30;53592;51.402;6.054;2023-05-29T07:44:57;3.74;3.62;3.00;2.12;17.05;17.02;16.86;16.05;13.12;0.74
65988;SPS30;53592;51.402;6.054;2023-05-29T07:47:23;3.78;3.65;3.03;2.13;17.13;17.10;16.94;16.12;13.16;0.75
65988;SPS30;53592;51.402;6.054;2023-05-29T07:49:49;3.67;3.55;2.95;2.10;16.86;16.83;16.68;15.89;13.02;0.74
65988;SPS30;53592;51.402;6.054;2023-05-29T07:52:15;4.28;4.13;3.39;2.33;18.77;18.74;18.54;17.57;14.25;0.76
65988;SPS30;53592;51.402;6.054;2023-05-29T07:54:41;4.76;4.60;3.78;2.63;21.17;21.13;20.92;19.85;16.15;0.75
65988;SPS30;53592;51.402;6.054;2023-05-29T07:57:06;4.27;4.13;3.42;2.41;19.43;19.40;19.21;18.29;14.95;0.74
65988;SPS30;53592;51.402;6.054;2023-05-29T07:59:40;4.27;4.13;3.43;2.43;19.56;19.52;19.34;18.42;15.07;0.75
65988;SPS30;53592;51.402;6.054;2023-05-29T08:02:06;3.72;3.60;3.00;2.13;17.16;17.13;16.97;16.18;13.26;0.74
65988;SPS30;53592;51.402;6.054;2023-05-29T08:04:32;3.80;3.68;3.06;2.17;17.43;17.40;17.24;16.43;13.45;0.74
65988;SPS30;53592;51.402;6.054;2023-05-29T08:07:01;3.67;3.55;2.93;2.05;16.54;16.51;16.35;15.54;12.68;0.73
65988;SPS30;53592;51.402;6.054;2023-05-29T08:09:31;4.36;4.21;3.45;2.37;19.10;19.06;18.87;17.88;14.50;0.73
65988;SPS30;53592;51.402;6.054;2023-05-29T08:11:56;4.36;4.20;3.43;2.35;18.93;18.90;18.70;17.70;14.33;0.74
65988;SPS30;53592;51.402;6.054;2023-05-29T08:14:22;3.90;3.77;3.09;2.14;17.24;17.21;17.03;16.15;13.12;0.74
65988;SPS30;53592;51.402;6.054;2023-05-29T08:16:47;4.41;4.25;3.47;2.37;19.10;19.06;18.86;17.84;14.43;0.76
65988;SPS30;53592;51.402;6.054;2023-05-29T08:19:13;4.76;4.58;3.67;2.40;19.36;19.32;19.08;17.90;14.28;0.79
65988;SPS30;53592;51.402;6.054;2023-05-29T08:21:39;4.16;4.00;3.20;2.10;16.94;16.91;16.70;15.67;12.50;0.80
65988;SPS30;53592;51.402;6.054;2023-05-29T08:24:04;4.53;4.36;3.50;2.30;18.57;18.53;18.31;17.20;13.74;0.80
65988;SPS30;53592;51.402;6.054;2023-05-29T08:26:31;4.68;4.50;3.62;2.40;19.33;19.29;19.07;17.93;14.35;0.79
65988;SPS30;53592;51.402;6.054;2023-05-29T08:28:56;4.55;4.38;3.54;2.37;19.08;19.05;18.83;17.74;14.24;0.78
65988;SPS30;53592;51.402;6.054;2023-05-29T08:31:22;4.30;4.14;3.36;2.27;18.30;18.27;18.07;17.05;13.75;0.77
65988;SPS30;53592;51.402;6.054;2023-05-29T08:33:50;4.42;4.25;3.44;2.29;18.49;18.45;18.24;17.18;13.80;0.77
65988;SPS30;53592;51.402;6.054;2023-05-29T08:36:16;4.15;4.00;3.25;2.20;17.74;17.71;17.51;16.54;13.34;0.75
65988;SPS30;53592;51.402;6.054;2023-05-29T08:38:42;3.94;3.81;3.15;2.21;17.81;17.78;17.61;16.75;13.67;0.73
65988;SPS30;53592;51.402;6.054;2023-05-29T08:41:08;3.52;3.41;2.84;2.03;16.30;16.27;16.12;15.38;12.61;0.72
65988;SPS30;53592;51.402;6.054;2023-05-29T08:43:47;4.64;4.48;3.67;2.53;20.40;20.36;20.16;19.10;15.51;0.75
65988;SPS30;53592;51.402;6.054;2023-05-29T08:46:15;4.59;4.43;3.68;2.59;20.87;20.83;20.63;19.64;16.05;0.75
65988;SPS30;53592;51.402;6.054;2023-05-29T08:48:43;5.02;4.87;4.12;3.02;24.30;24.27;24.07;23.08;19.09;0.72
65988;SPS30;53592;51.402;6.054;2023-05-29T08:51:15;3.98;3.87;3.33;2.52;20.22;20.19;20.05;19.33;16.13;0.69
65988;SPS30;53592;51.402;6.054;2023-05-29T08:53:48;4.07;3.95;3.33;2.42;19.46;19.43;19.27;18.45;15.22;0.70
65988;SPS30;53592;51.402;6.054;2023-05-29T08:56:15;3.49;3.39;2.93;2.22;17.83;17.81;17.68;17.06;14.24;0.67
65988;SPS30;53592;51.402;6.054;2023-05-29T08:58:41;3.82;3.72;3.23;2.49;19.97;19.94;19.81;19.15;16.05;0.66
65988;SPS30;53592;51.402;6.054;2023-05-29T09:01:08;3.31;3.23;2.80;2.15;17.23;17.21;17.10;16.52;13.83;0.66
65988;SPS30;53592;51.402;6.054;2023-05-29T09:03:35;3.80;3.70;3.21;2.45;19.70;19.67;19.54;18.88;15.80;0.66
65988;SPS30;53592;51.402;6.054;2023-05-29T09:06:03;4.91;4.82;4.35;3.57;28.61;28.59;28.46;27.81;23.69;0.62
65988;SPS30;53592;51.402;6.054;2023-05-29T09:08:29;3.35;3.30;3.05;2.58;20.68;20.67;20.59;20.22;17.36;0.62
65988;SPS30;53592;51.402;6.054;2023-05-29T09:10:55;2.86;2.81;2.56;2.13;17.05;17.04;16.97;16.62;14.20;0.63
65988;SPS30;53592;51.402;6.054;2023-05-29T09:13:22;3.09;3.04;2.77;2.30;18.44;18.42;18.35;17.96;15.35;0.65
65988;SPS30;53592;51.402;6.054;2023-05-29T09:15:47;4.81;4.73;4.32;3.61;28.89;28.87;28.75;28.17;24.10;0.64
65988;SPS30;53592;51.402;6.054;2023-05-29T09:18:13;4.72;4.67;4.37;3.79;30.37;30.35;30.26;29.82;25.73;0.60
65988;SPS30;53592;51.402;6.054;2023-05-29T09:20:41;3.08;3.04;2.86;2.49;19.93;19.92;19.87;19.59;16.92;0.61
65988;SPS30;53592;51.402;6.054;2023-05-29T09:23:07;2.76;2.72;2.50;2.12;16.94;16.93;16.87;16.55;14.20;0.64